sensor_id;sensor_type;location;lat;lon;timestamp;P1;durP1;ratioP1;P2;durP2;ratioP2
62654;SDS011;48717;55.556;37.816;2022-08-11T00:01:23;6.68;;;2.15;;
62654;SDS011;48717;55.556;37.816;2022-08-11T00:06:25;6.20;;;2.20;;
62654;SDS011;48717;55.556;37.816;2022-08-11T00:08:54;8.20;;;2.88;;
62654;SDS011;48717;55.556;37.816;2022-08-11T00:14:14;6.78;;;3.05;;
62654;SDS011;48717;55.556;37.816;2022-08-11T00:16:55;15.18;;;2.92;;
62654;SDS011;48717;55.556;37.816;2022-08-11T00:19:28;6.40;;;2.90;;
62654;SDS011;48717;55.556;37.816;2022-08-11T00:22:21;8.27;;;3.00;;
62654;SDS011;48717;55.556;37.816;2022-08-11T00:24:49;4.93;;;2.70;;
62654;SDS011;48717;55.556;37.816;2022-08-11T00:27:34;5.25;;;2.30;;
62654;SDS011;48717;55.556;37.816;2022-08-11T00:30:08;5.43;;;2.80;;
62654;SDS011;48717;55.556;37.816;2022-08-11T00:32:37;8.98;;;2.83;;
62654;SDS011;48717;55.556;37.816;2022-08-11T00:35:07;5.32;;;2.58;;
62654;SDS011;48717;55.556;37.816;2022-08-11T00:37:58;7.90;;;2.88;;
62654;SDS011;48717;55.556;37.816;2022-08-11T00:40:32;7.57;;;2.63;;
62654;SDS011;48717;55.556;37.816;2022-08-11T00:43:21;7.47;;;2.67;;
62654;SDS011;48717;55.556;37.816;2022-08-11T00:51:40;6.95;;;2.15;;
62654;SDS011;48717;55.556;37.816;2022-08-11T01:00:24;6.07;;;1.95;;
62654;SDS011;48717;55.556;37.816;2022-08-11T01:08:28;2.70;;;1.70;;
62654;SDS011;48717;55.556;37.816;2022-08-11T01:20:02;7.93;;;1.70;;
62654;SDS011;48717;55.556;37.816;2022-08-11T01:28:40;2.78;;;1.52;;
62654;SDS011;48717;55.556;37.816;2022-08-11T01:40:15;1.55;;;1.45;;
62654;SDS011;48717;55.556;37.816;2022-08-11T01:46:10;2.65;;;1.60;;
62654;SDS011;48717;55.556;37.816;2022-08-11T01:52:03;3.15;;;1.80;;
62654;SDS011;48717;55.556;37.816;2022-08-11T01:57:46;4.20;;;2.00;;
62654;SDS011;48717;55.556;37.816;2022-08-11T02:00:21;4.15;;;1.80;;
62654;SDS011;48717;55.556;37.816;2022-08-11T02:12:09;3.42;;;1.85;;
62654;SDS011;48717;55.556;37.816;2022-08-11T02:15:04;3.65;;;1.92;;
62654;SDS011;48717;55.556;37.816;2022-08-11T02:20:03;2.70;;;1.70;;
62654;SDS011;48717;55.556;37.816;2022-08-11T02:26:38;2.95;;;1.85;;
62654;SDS011;48717;55.556;37.816;2022-08-11T02:35:18;5.43;;;2.00;;
62654;SDS011;48717;55.556;37.816;2022-08-11T02:55:30;6.57;;;2.10;;
62654;SDS011;48717;55.556;37.816;2022-08-11T02:58:29;6.60;;;2.05;;
62654;SDS011;48717;55.556;37.816;2022-08-11T03:01:27;4.20;;;2.15;;
62654;SDS011;48717;55.556;37.816;2022-08-11T03:04:04;5.28;;;2.30;;
62654;SDS011;48717;55.556;37.816;2022-08-11T03:16:20;5.10;;;2.42;;
62654;SDS011;48717;55.556;37.816;2022-08-11T03:19:27;4.15;;;2.20;;
62654;SDS011;48717;55.556;37.816;2022-08-11T03:27:38;7.22;;;2.42;;
62654;SDS011;48717;55.556;37.816;2022-08-11T03:30:14;6.40;;;2.80;;
62654;SDS011;48717;55.556;37.816;2022-08-11T03:44:46;7.85;;;2.85;;
62654;SDS011;48717;55.556;37.816;2022-08-11T03:47:31;6.82;;;2.83;;
62654;SDS011;48717;55.556;37.816;2022-08-11T03:52:36;7.30;;;2.80;;
62654;SDS011;48717;55.556;37.816;2022-08-11T03:55:44;11.00;;;3.30;;
62654;SDS011;48717;55.556;37.816;2022-08-11T04:01:19;6.32;;;3.33;;
62654;SDS011;48717;55.556;37.816;2022-08-11T04:09:54;6.55;;;3.40;;
62654;SDS011;48717;55.556;37.816;2022-08-11T04:21:19;4.72;;;2.85;;
62654;SDS011;48717;55.556;37.816;2022-08-11T04:30:16;10.93;;;3.03;;
62654;SDS011;48717;55.556;37.816;2022-08-11T04:51:20;5.97;;;3.53;;
62654;SDS011;48717;55.556;37.816;2022-08-11T05:00:55;8.63;;;3.13;;
62654;SDS011;48717;55.556;37.816;2022-08-11T05:07:41;4.50;;;2.90;;
62654;SDS011;48717;55.556;37.816;2022-08-11T05:16:30;11.07;;;5.82;;
62654;SDS011;48717;55.556;37.816;2022-08-11T05:19:20;7.13;;;3.05;;
62654;SDS011;48717;55.556;37.816;2022-08-11T05:22:07;9.82;;;4.78;;
62654;SDS011;48717;55.556;37.816;2022-08-11T05:25:05;14.30;;;5.43;;
62654;SDS011;48717;55.556;37.816;2022-08-11T05:28:33;5.50;;;2.92;;
62654;SDS011;48717;55.556;37.816;2022-08-11T05:31:24;7.00;;;3.50;;
62654;SDS011;48717;55.556;37.816;2022-08-11T05:34:32;8.98;;;3.00;;
62654;SDS011;48717;55.556;37.816;2022-08-11T05:37:24;6.00;;;3.22;;
62654;SDS011;48717;55.556;37.816;2022-08-11T05:40:04;4.25;;;2.50;;
62654;SDS011;48717;55.556;37.816;2022-08-11T05:42:54;10.43;;;3.22;;
62654;SDS011;48717;55.556;37.816;2022-08-11T05:45:43;6.00;;;2.80;;
62654;SDS011;48717;55.556;37.816;2022-08-11T05:48:34;8.93;;;3.00;;
62654;SDS011;48717;55.556;37.816;2022-08-11T05:51:21;4.35;;;2.70;;
62654;SDS011;48717;55.556;37.816;2022-08-11T05:54:26;9.52;;;4.38;;
62654;SDS011;48717;55.556;37.816;2022-08-11T05:57:20;6.28;;;2.58;;
62654;SDS011;48717;55.556;37.816;2022-08-11T06:00:12;4.07;;;2.42;;
62654;SDS011;48717;55.556;37.816;2022-08-11T06:02:43;6.07;;;3.30;;
62654;SDS011;48717;55.556;37.816;2022-08-11T06:05:24;16.90;;;10.55;;
62654;SDS011;48717;55.556;37.816;2022-08-11T06:10:36;5.72;;;3.50;;
62654;SDS011;48717;55.556;37.816;2022-08-11T06:13:07;5.78;;;4.82;;
62654;SDS011;48717;55.556;37.816;2022-08-11T06:16:09;5.88;;;4.15;;
62654;SDS011;48717;55.556;37.816;2022-08-11T06:18:32;9.20;;;2.85;;
62654;SDS011;48717;55.556;37.816;2022-08-11T06:21:01;5.40;;;2.70;;
62654;SDS011;48717;55.556;37.816;2022-08-11T06:23:36;6.18;;;2.85;;
62654;SDS011;48717;55.556;37.816;2022-08-11T06:28:39;6.55;;;3.63;;
62654;SDS011;48717;55.556;37.816;2022-08-11T06:31:11;10.32;;;2.78;;
62654;SDS011;48717;55.556;37.816;2022-08-11T06:36:27;6.88;;;2.33;;
62654;SDS011;48717;55.556;37.816;2022-08-11T06:44:40;10.02;;;4.20;;
62654;SDS011;48717;55.556;37.816;2022-08-11T06:47:23;3.30;;;2.38;;
62654;SDS011;48717;55.556;37.816;2022-08-11T06:49:52;9.90;;;3.15;;
62654;SDS011;48717;55.556;37.816;2022-08-11T06:52:44;5.45;;;2.92;;
62654;SDS011;48717;55.556;37.816;2022-08-11T06:58:25;4.57;;;2.10;;
62654;SDS011;48717;55.556;37.816;2022-08-11T07:01:16;9.30;;;3.13;;
62654;SDS011;48717;55.556;37.816;2022-08-11T07:03:53;6.22;;;2.25;;
62654;SDS011;48717;55.556;37.816;2022-08-11T07:12:49;5.70;;;2.40;;
62654;SDS011;48717;55.556;37.816;2022-08-11T07:15:57;2.75;;;2.30;;
62654;SDS011;48717;55.556;37.816;2022-08-11T07:18:39;5.07;;;2.30;;
62654;SDS011;48717;55.556;37.816;2022-08-11T07:21:27;8.82;;;2.60;;
62654;SDS011;48717;55.556;37.816;2022-08-11T07:24:36;2.95;;;2.05;;
62654;SDS011;48717;55.556;37.816;2022-08-11T07:27:52;4.07;;;2.75;;
62654;SDS011;48717;55.556;37.816;2022-08-11T07:30:46;4.20;;;2.95;;
62654;SDS011;48717;55.556;37.816;2022-08-11T07:33:24;7.57;;;4.50;;
62654;SDS011;48717;55.556;37.816;2022-08-11T07:36:17;5.63;;;2.30;;
62654;SDS011;48717;55.556;37.816;2022-08-11T07:38:54;3.38;;;1.85;;
62654;SDS011;48717;55.556;37.816;2022-08-11T07:41:24;3.83;;;1.75;;
62654;SDS011;48717;55.556;37.816;2022-08-11T07:43:54;3.10;;;1.70;;
62654;SDS011;48717;55.556;37.816;2022-08-11T07:46:35;4.72;;;1.75;;
62654;SDS011;48717;55.556;37.816;2022-08-11T07:49:27;8.75;;;1.95;;
62654;SDS011;48717;55.556;37.816;2022-08-11T07:52:16;3.05;;;1.60;;
62654;SDS011;48717;55.556;37.816;2022-08-11T07:55:11;3.45;;;2.63;;
62654;SDS011;48717;55.556;37.816;2022-08-11T07:57:45;3.45;;;2.00;;
62654;SDS011;48717;55.556;37.816;2022-08-11T08:00:46;5.05;;;2.15;;
62654;SDS011;48717;55.556;37.816;2022-08-11T08:03:47;5.80;;;3.92;;
62654;SDS011;48717;55.556;37.816;2022-08-11T08:06:35;2.50;;;2.15;;
62654;SDS011;48717;55.556;37.816;2022-08-11T08:09:23;3.33;;;1.98;;
62654;SDS011;48717;55.556;37.816;2022-08-11T08:12:10;3.50;;;1.70;;
62654;SDS011;48717;55.556;37.816;2022-08-11T08:14:57;2.15;;;1.67;;
62654;SDS011;48717;55.556;37.816;2022-08-11T08:17:43;2.83;;;2.53;;
62654;SDS011;48717;55.556;37.816;2022-08-11T08:20:44;2.00;;;1.88;;
62654;SDS011;48717;55.556;37.816;2022-08-11T08:23:13;2.00;;;1.80;;
62654;SDS011;48717;55.556;37.816;2022-08-11T08:25:41;4.00;;;1.70;;
62654;SDS011;48717;55.556;37.816;2022-08-11T08:30:43;3.50;;;1.65;;
62654;SDS011;48717;55.556;37.816;2022-08-11T08:35:57;4.05;;;2.00;;
62654;SDS011;48717;55.556;37.816;2022-08-11T08:38:39;4.22;;;1.88;;
62654;SDS011;48717;55.556;37.816;2022-08-11T08:41:08;3.78;;;1.88;;
62654;SDS011;48717;55.556;37.816;2022-08-11T08:43:42;6.65;;;2.45;;
62654;SDS011;48717;55.556;37.816;2022-08-11T08:46:15;3.40;;;2.20;;
62654;SDS011;48717;55.556;37.816;2022-08-11T08:48:47;6.75;;;2.90;;
62654;SDS011;48717;55.556;37.816;2022-08-11T08:51:19;5.60;;;2.90;;
62654;SDS011;48717;55.556;37.816;2022-08-11T08:54:20;2.25;;;1.85;;
62654;SDS011;48717;55.556;37.816;2022-08-11T08:56:53;3.78;;;2.67;;
62654;SDS011;48717;55.556;37.816;2022-08-11T08:59:23;2.90;;;2.15;;
62654;SDS011;48717;55.556;37.816;2022-08-11T09:02:12;2.30;;;1.70;;
62654;SDS011;48717;55.556;37.816;2022-08-11T09:04:42;3.47;;;3.13;;
62654;SDS011;48717;55.556;37.816;2022-08-11T09:07:12;4.30;;;2.65;;
62654;SDS011;48717;55.556;37.816;2022-08-11T09:09:42;5.10;;;2.58;;
62654;SDS011;48717;55.556;37.816;2022-08-11T09:12:10;5.30;;;2.45;;
62654;SDS011;48717;55.556;37.816;2022-08-11T09:14:40;4.90;;;3.50;;
62654;SDS011;48717;55.556;37.816;2022-08-11T09:17:33;1.83;;;1.60;;
62654;SDS011;48717;55.556;37.816;2022-08-11T09:20:06;2.95;;;2.10;;
62654;SDS011;48717;55.556;37.816;2022-08-11T09:22:38;5.85;;;3.60;;
62654;SDS011;48717;55.556;37.816;2022-08-11T09:25:45;9.63;;;4.30;;
62654;SDS011;48717;55.556;37.816;2022-08-11T09:28:32;3.55;;;2.40;;
62654;SDS011;48717;55.556;37.816;2022-08-11T09:31:01;8.23;;;2.88;;
62654;SDS011;48717;55.556;37.816;2022-08-11T09:33:29;3.90;;;1.95;;
62654;SDS011;48717;55.556;37.816;2022-08-11T09:38:46;3.15;;;2.25;;
62654;SDS011;48717;55.556;37.816;2022-08-11T09:41:32;5.43;;;1.80;;
62654;SDS011;48717;55.556;37.816;2022-08-11T09:44:21;5.57;;;1.65;;
62654;SDS011;48717;55.556;37.816;2022-08-11T09:47:08;5.45;;;3.08;;
62654;SDS011;48717;55.556;37.816;2022-08-11T09:49:42;3.72;;;2.50;;
62654;SDS011;48717;55.556;37.816;2022-08-11T09:52:11;4.28;;;1.88;;
62654;SDS011;48717;55.556;37.816;2022-08-11T09:54:43;3.10;;;1.65;;
62654;SDS011;48717;55.556;37.816;2022-08-11T09:57:13;3.55;;;1.92;;
62654;SDS011;48717;55.556;37.816;2022-08-11T10:00:05;2.45;;;1.90;;
62654;SDS011;48717;55.556;37.816;2022-08-11T10:02:39;2.67;;;2.42;;
62654;SDS011;48717;55.556;37.816;2022-08-11T10:05:18;2.90;;;2.30;;
62654;SDS011;48717;55.556;37.816;2022-08-11T10:08:06;2.00;;;1.55;;
62654;SDS011;48717;55.556;37.816;2022-08-11T10:10:38;2.72;;;1.95;;
62654;SDS011;48717;55.556;37.816;2022-08-11T10:13:11;4.68;;;1.60;;
62654;SDS011;48717;55.556;37.816;2022-08-11T10:16:05;2.88;;;2.67;;
62654;SDS011;48717;55.556;37.816;2022-08-11T10:18:43;1.88;;;1.60;;
62654;SDS011;48717;55.556;37.816;2022-08-11T10:21:36;5.40;;;3.95;;
62654;SDS011;48717;55.556;37.816;2022-08-11T10:24:05;7.85;;;7.05;;
62654;SDS011;48717;55.556;37.816;2022-08-11T10:26:52;5.75;;;3.72;;
62654;SDS011;48717;55.556;37.816;2022-08-11T10:29:32;3.28;;;1.95;;
62654;SDS011;48717;55.556;37.816;2022-08-11T10:32:26;2.17;;;1.80;;
62654;SDS011;48717;55.556;37.816;2022-08-11T10:35:28;6.55;;;4.82;;
62654;SDS011;48717;55.556;37.816;2022-08-11T10:37:57;7.28;;;6.57;;
62654;SDS011;48717;55.556;37.816;2022-08-11T10:40:38;2.83;;;2.00;;
62654;SDS011;48717;55.556;37.816;2022-08-11T10:43:10;15.13;;;7.60;;
62654;SDS011;48717;55.556;37.816;2022-08-11T10:46:00;5.88;;;3.70;;
62654;SDS011;48717;55.556;37.816;2022-08-11T10:48:56;2.88;;;2.35;;
62654;SDS011;48717;55.556;37.816;2022-08-11T10:51:25;2.17;;;1.98;;
62654;SDS011;48717;55.556;37.816;2022-08-11T10:54:19;5.32;;;4.00;;
62654;SDS011;48717;55.556;37.816;2022-08-11T10:57:06;2.20;;;2.00;;
62654;SDS011;48717;55.556;37.816;2022-08-11T10:59:54;2.22;;;1.95;;
62654;SDS011;48717;55.556;37.816;2022-08-11T11:02:22;9.05;;;3.58;;
62654;SDS011;48717;55.556;37.816;2022-08-11T11:07:46;2.33;;;1.55;;
62654;SDS011;48717;55.556;37.816;2022-08-11T11:10:21;4.90;;;3.97;;
62654;SDS011;48717;55.556;37.816;2022-08-11T11:12:53;4.45;;;3.00;;
62654;SDS011;48717;55.556;37.816;2022-08-11T11:15:43;2.58;;;2.03;;
62654;SDS011;48717;55.556;37.816;2022-08-11T11:18:32;3.67;;;1.77;;
62654;SDS011;48717;55.556;37.816;2022-08-11T11:21:06;3.10;;;2.13;;
62654;SDS011;48717;55.556;37.816;2022-08-11T11:23:42;3.25;;;1.80;;
62654;SDS011;48717;55.556;37.816;2022-08-11T11:26:33;4.15;;;1.92;;
62654;SDS011;48717;55.556;37.816;2022-08-11T11:29:16;6.97;;;1.95;;
62654;SDS011;48717;55.556;37.816;2022-08-11T11:37:21;5.88;;;2.88;;
62654;SDS011;48717;55.556;37.816;2022-08-11T11:39:49;2.60;;;1.73;;
62654;SDS011;48717;55.556;37.816;2022-08-11T11:42:17;2.42;;;1.73;;
62654;SDS011;48717;55.556;37.816;2022-08-11T11:44:47;6.70;;;2.10;;
62654;SDS011;48717;55.556;37.816;2022-08-11T11:47:14;1.70;;;1.60;;
62654;SDS011;48717;55.556;37.816;2022-08-11T11:49:47;2.35;;;1.73;;
62654;SDS011;48717;55.556;37.816;2022-08-11T11:52:16;9.50;;;3.47;;
62654;SDS011;48717;55.556;37.816;2022-08-11T11:54:46;3.40;;;2.13;;
62654;SDS011;48717;55.556;37.816;2022-08-11T11:57:16;4.47;;;2.42;;
62654;SDS011;48717;55.556;37.816;2022-08-11T12:00:05;6.50;;;2.42;;
62654;SDS011;48717;55.556;37.816;2022-08-11T12:03:00;7.43;;;3.15;;
62654;SDS011;48717;55.556;37.816;2022-08-11T12:05:32;5.30;;;1.90;;
62654;SDS011;48717;55.556;37.816;2022-08-11T12:08:01;11.00;;;3.58;;
62654;SDS011;48717;55.556;37.816;2022-08-11T12:10:40;3.75;;;1.80;;
62654;SDS011;48717;55.556;37.816;2022-08-11T12:13:14;2.40;;;1.90;;
62654;SDS011;48717;55.556;37.816;2022-08-11T12:16:01;2.27;;;2.07;;
62654;SDS011;48717;55.556;37.816;2022-08-11T12:18:53;4.80;;;2.85;;
62654;SDS011;48717;55.556;37.816;2022-08-11T12:21:23;3.65;;;2.67;;
62654;SDS011;48717;55.556;37.816;2022-08-11T12:23:52;5.28;;;4.30;;
62654;SDS011;48717;55.556;37.816;2022-08-11T12:26:40;5.32;;;3.17;;
62654;SDS011;48717;55.556;37.816;2022-08-11T12:29:34;7.20;;;3.60;;
62654;SDS011;48717;55.556;37.816;2022-08-11T12:32:09;5.80;;;2.83;;
62654;SDS011;48717;55.556;37.816;2022-08-11T12:34:37;7.10;;;2.27;;
62654;SDS011;48717;55.556;37.816;2022-08-11T12:37:04;4.60;;;3.95;;
62654;SDS011;48717;55.556;37.816;2022-08-11T12:39:46;2.17;;;1.98;;
62654;SDS011;48717;55.556;37.816;2022-08-11T12:42:54;2.05;;;1.73;;
62654;SDS011;48717;55.556;37.816;2022-08-11T12:45:53;3.70;;;1.80;;
62654;SDS011;48717;55.556;37.816;2022-08-11T12:48:27;3.92;;;1.90;;
62654;SDS011;48717;55.556;37.816;2022-08-11T12:51:27;3.33;;;2.72;;
62654;SDS011;48717;55.556;37.816;2022-08-11T12:57:37;2.67;;;1.80;;
62654;SDS011;48717;55.556;37.816;2022-08-11T13:00:27;3.17;;;1.65;;
62654;SDS011;48717;55.556;37.816;2022-08-11T13:03:17;2.77;;;1.50;;
62654;SDS011;48717;55.556;37.816;2022-08-11T13:06:04;2.53;;;2.00;;
62654;SDS011;48717;55.556;37.816;2022-08-11T13:08:34;5.15;;;2.08;;
62654;SDS011;48717;55.556;37.816;2022-08-11T13:11:03;5.90;;;2.30;;
62654;SDS011;48717;55.556;37.816;2022-08-11T13:14:10;3.35;;;1.90;;
62654;SDS011;48717;55.556;37.816;2022-08-11T13:16:41;2.10;;;1.90;;
62654;SDS011;48717;55.556;37.816;2022-08-11T13:19:28;6.38;;;1.67;;
62654;SDS011;48717;55.556;37.816;2022-08-11T13:21:57;2.05;;;1.95;;
62654;SDS011;48717;55.556;37.816;2022-08-11T13:24:26;4.07;;;1.80;;
62654;SDS011;48717;55.556;37.816;2022-08-11T13:26:54;1.73;;;1.63;;
62654;SDS011;48717;55.556;37.816;2022-08-11T13:29:24;6.50;;;2.10;;
62654;SDS011;48717;55.556;37.816;2022-08-11T13:31:54;6.30;;;2.38;;
62654;SDS011;48717;55.556;37.816;2022-08-11T13:34:24;2.60;;;2.38;;
62654;SDS011;48717;55.556;37.816;2022-08-11T13:36:54;7.88;;;2.60;;
62654;SDS011;48717;55.556;37.816;2022-08-11T13:39:24;5.82;;;1.92;;
62654;SDS011;48717;55.556;37.816;2022-08-11T13:41:53;4.22;;;3.70;;
62654;SDS011;48717;55.556;37.816;2022-08-11T13:44:23;6.20;;;3.25;;
62654;SDS011;48717;55.556;37.816;2022-08-11T13:47:00;7.07;;;3.50;;
62654;SDS011;48717;55.556;37.816;2022-08-11T13:49:33;4.50;;;2.70;;
62654;SDS011;48717;55.556;37.816;2022-08-11T13:52:06;5.13;;;2.13;;
62654;SDS011;48717;55.556;37.816;2022-08-11T13:54:40;4.03;;;3.40;;
62654;SDS011;48717;55.556;37.816;2022-08-11T13:57:09;3.88;;;2.83;;
62654;SDS011;48717;55.556;37.816;2022-08-11T13:59:58;5.15;;;4.28;;
62654;SDS011;48717;55.556;37.816;2022-08-11T14:02:53;4.68;;;2.80;;
62654;SDS011;48717;55.556;37.816;2022-08-11T14:05:30;8.63;;;6.88;;
62654;SDS011;48717;55.556;37.816;2022-08-11T14:08:06;5.43;;;2.85;;
62654;SDS011;48717;55.556;37.816;2022-08-11T14:11:00;9.32;;;6.60;;
62654;SDS011;48717;55.556;37.816;2022-08-11T14:14:07;5.40;;;2.08;;
62654;SDS011;48717;55.556;37.816;2022-08-11T14:16:40;12.85;;;6.55;;
62654;SDS011;48717;55.556;37.816;2022-08-11T14:19:11;6.32;;;3.53;;
62654;SDS011;48717;55.556;37.816;2022-08-11T14:21:41;5.78;;;2.58;;
62654;SDS011;48717;55.556;37.816;2022-08-11T14:24:42;8.65;;;5.28;;
62654;SDS011;48717;55.556;37.816;2022-08-11T14:27:17;6.20;;;3.72;;
62654;SDS011;48717;55.556;37.816;2022-08-11T14:30:11;6.15;;;2.30;;
62654;SDS011;48717;55.556;37.816;2022-08-11T14:32:59;5.47;;;2.88;;
62654;SDS011;48717;55.556;37.816;2022-08-11T14:35:42;5.20;;;2.15;;
62654;SDS011;48717;55.556;37.816;2022-08-11T14:38:15;2.13;;;1.90;;
62654;SDS011;48717;55.556;37.816;2022-08-11T14:40:45;2.60;;;1.98;;
62654;SDS011;48717;55.556;37.816;2022-08-11T14:43:32;6.07;;;2.17;;
62654;SDS011;48717;55.556;37.816;2022-08-11T14:46:39;5.45;;;2.42;;
62654;SDS011;48717;55.556;37.816;2022-08-11T14:49:26;3.60;;;2.22;;
62654;SDS011;48717;55.556;37.816;2022-08-11T14:51:55;9.50;;;2.45;;
62654;SDS011;48717;55.556;37.816;2022-08-11T14:54:24;4.28;;;2.45;;
62654;SDS011;48717;55.556;37.816;2022-08-11T14:57:12;3.70;;;2.07;;
62654;SDS011;48717;55.556;37.816;2022-08-11T14:59:41;5.03;;;2.00;;
62654;SDS011;48717;55.556;37.816;2022-08-11T15:02:09;3.47;;;2.10;;
62654;SDS011;48717;55.556;37.816;2022-08-11T15:04:57;5.45;;;2.63;;
62654;SDS011;48717;55.556;37.816;2022-08-11T15:09:56;8.70;;;5.05;;
62654;SDS011;48717;55.556;37.816;2022-08-11T15:12:39;3.92;;;2.15;;
62654;SDS011;48717;55.556;37.816;2022-08-11T15:15:10;5.80;;;2.50;;
62654;SDS011;48717;55.556;37.816;2022-08-11T15:17:57;4.07;;;2.85;;
62654;SDS011;48717;55.556;37.816;2022-08-11T15:20:27;3.53;;;2.33;;
62654;SDS011;48717;55.556;37.816;2022-08-11T15:23:19;4.50;;;2.15;;
62654;SDS011;48717;55.556;37.816;2022-08-11T15:26:15;6.38;;;2.90;;
62654;SDS011;48717;55.556;37.816;2022-08-11T15:28:46;4.68;;;2.90;;
62654;SDS011;48717;55.556;37.816;2022-08-11T15:31:34;4.25;;;2.55;;
62654;SDS011;48717;55.556;37.816;2022-08-11T15:34:24;7.53;;;3.07;;
62654;SDS011;48717;55.556;37.816;2022-08-11T15:37:14;7.43;;;2.30;;
62654;SDS011;48717;55.556;37.816;2022-08-11T15:46:07;9.02;;;2.67;;
62654;SDS011;48717;55.556;37.816;2022-08-11T15:49:21;5.22;;;3.13;;
62654;SDS011;48717;55.556;37.816;2022-08-11T15:51:41;10.30;;;3.90;;
62654;SDS011;48717;55.556;37.816;2022-08-11T15:54:12;6.35;;;3.17;;
62654;SDS011;48717;55.556;37.816;2022-08-11T15:56:43;5.13;;;3.00;;
62654;SDS011;48717;55.556;37.816;2022-08-11T15:59:13;9.38;;;3.05;;
62654;SDS011;48717;55.556;37.816;2022-08-11T16:02:10;9.43;;;3.40;;
62654;SDS011;48717;55.556;37.816;2022-08-11T16:05:00;5.28;;;2.70;;
62654;SDS011;48717;55.556;37.816;2022-08-11T16:07:32;5.75;;;2.70;;
62654;SDS011;48717;55.556;37.816;2022-08-11T16:10:08;5.70;;;2.80;;
62654;SDS011;48717;55.556;37.816;2022-08-11T16:12:54;26.50;;;13.00;;
62654;SDS011;48717;55.556;37.816;2022-08-11T16:15:32;18.98;;;4.10;;
62654;SDS011;48717;55.556;37.816;2022-08-11T16:21:35;13.85;;;5.18;;
62654;SDS011;48717;55.556;37.816;2022-08-11T16:24:06;9.63;;;3.97;;
62654;SDS011;48717;55.556;37.816;2022-08-11T16:26:57;15.65;;;4.22;;
62654;SDS011;48717;55.556;37.816;2022-08-11T16:29:42;26.33;;;9.82;;
62654;SDS011;48717;55.556;37.816;2022-08-11T16:32:12;49.88;;;11.75;;
62654;SDS011;48717;55.556;37.816;2022-08-11T16:34:45;39.92;;;8.45;;
62654;SDS011;48717;55.556;37.816;2022-08-11T16:37:37;43.72;;;7.20;;
62654;SDS011;48717;55.556;37.816;2022-08-11T16:40:24;33.75;;;6.72;;
62654;SDS011;48717;55.556;37.816;2022-08-11T16:42:52;46.63;;;10.32;;
62654;SDS011;48717;55.556;37.816;2022-08-11T16:45:40;37.30;;;6.28;;
62654;SDS011;48717;55.556;37.816;2022-08-11T16:48:29;22.10;;;4.95;;
62654;SDS011;48717;55.556;37.816;2022-08-11T16:51:04;11.15;;;4.90;;
62654;SDS011;48717;55.556;37.816;2022-08-11T16:53:36;22.17;;;4.88;;
62654;SDS011;48717;55.556;37.816;2022-08-11T16:56:31;9.50;;;3.97;;
62654;SDS011;48717;55.556;37.816;2022-08-11T16:59:00;12.82;;;4.10;;
62654;SDS011;48717;55.556;37.816;2022-08-11T17:01:42;26.85;;;7.03;;
62654;SDS011;48717;55.556;37.816;2022-08-11T17:04:17;14.57;;;4.05;;
62654;SDS011;48717;55.556;37.816;2022-08-11T17:07:16;16.50;;;4.65;;
62654;SDS011;48717;55.556;37.816;2022-08-11T17:10:18;11.95;;;4.20;;
62654;SDS011;48717;55.556;37.816;2022-08-11T17:13:20;33.08;;;6.18;;
62654;SDS011;48717;55.556;37.816;2022-08-11T17:15:52;41.92;;;6.57;;
62654;SDS011;48717;55.556;37.816;2022-08-11T17:21:06;20.83;;;5.47;;
62654;SDS011;48717;55.556;37.816;2022-08-11T17:23:42;32.03;;;6.13;;
62654;SDS011;48717;55.556;37.816;2022-08-11T17:26:20;103.43;;;49.35;;
62654;SDS011;48717;55.556;37.816;2022-08-11T17:32:25;23.08;;;6.43;;
62654;SDS011;48717;55.556;37.816;2022-08-11T17:35:31;26.33;;;6.57;;
62654;SDS011;48717;55.556;37.816;2022-08-11T17:38:04;13.65;;;6.00;;
62654;SDS011;48717;55.556;37.816;2022-08-11T17:40:50;11.60;;;5.40;;
62654;SDS011;48717;55.556;37.816;2022-08-11T17:43:48;19.48;;;5.75;;
62654;SDS011;48717;55.556;37.816;2022-08-11T17:46:37;10.85;;;4.60;;
62654;SDS011;48717;55.556;37.816;2022-08-11T17:49:34;13.60;;;5.00;;
62654;SDS011;48717;55.556;37.816;2022-08-11T17:52:05;9.98;;;4.40;;
62654;SDS011;48717;55.556;37.816;2022-08-11T17:54:54;12.00;;;3.85;;
62654;SDS011;48717;55.556;37.816;2022-08-11T17:58:04;11.10;;;3.88;;
62654;SDS011;48717;55.556;37.816;2022-08-11T18:00:51;5.07;;;3.70;;
62654;SDS011;48717;55.556;37.816;2022-08-11T18:03:20;6.05;;;3.70;;
62654;SDS011;48717;55.556;37.816;2022-08-11T18:05:59;6.65;;;3.80;;
62654;SDS011;48717;55.556;37.816;2022-08-11T18:11:15;7.03;;;4.60;;
62654;SDS011;48717;55.556;37.816;2022-08-11T18:14:21;5.50;;;4.03;;
62654;SDS011;48717;55.556;37.816;2022-08-11T18:17:09;7.97;;;4.70;;
62654;SDS011;48717;55.556;37.816;2022-08-11T18:19:54;8.30;;;4.50;;
62654;SDS011;48717;55.556;37.816;2022-08-11T18:22:41;6.07;;;4.18;;
62654;SDS011;48717;55.556;37.816;2022-08-11T18:25:32;30.63;;;23.00;;
62654;SDS011;48717;55.556;37.816;2022-08-11T18:28:23;9.98;;;6.18;;
62654;SDS011;48717;55.556;37.816;2022-08-11T18:31:14;10.70;;;6.68;;
62654;SDS011;48717;55.556;37.816;2022-08-11T18:34:04;14.70;;;8.13;;
62654;SDS011;48717;55.556;37.816;2022-08-11T18:37:01;11.80;;;6.68;;
62654;SDS011;48717;55.556;37.816;2022-08-11T18:42:48;10.02;;;4.80;;
62654;SDS011;48717;55.556;37.816;2022-08-11T18:45:35;10.55;;;5.28;;
62654;SDS011;48717;55.556;37.816;2022-08-11T18:48:45;10.43;;;6.70;;
62654;SDS011;48717;55.556;37.816;2022-08-11T18:51:42;13.38;;;5.63;;
62654;SDS011;48717;55.556;37.816;2022-08-11T18:54:33;9.23;;;5.70;;
62654;SDS011;48717;55.556;37.816;2022-08-11T18:57:21;14.00;;;6.90;;
62654;SDS011;48717;55.556;37.816;2022-08-11T19:00:20;16.05;;;7.25;;
62654;SDS011;48717;55.556;37.816;2022-08-11T19:03:11;5.03;;;3.83;;
62654;SDS011;48717;55.556;37.816;2022-08-11T19:06:14;11.88;;;6.45;;
62654;SDS011;48717;55.556;37.816;2022-08-11T19:09:07;6.32;;;5.03;;
62654;SDS011;48717;55.556;37.816;2022-08-11T19:11:56;7.47;;;4.85;;
62654;SDS011;48717;55.556;37.816;2022-08-11T19:14:43;20.25;;;7.10;;
62654;SDS011;48717;55.556;37.816;2022-08-11T19:17:30;20.25;;;9.60;;
62654;SDS011;48717;55.556;37.816;2022-08-11T19:20:20;29.07;;;11.57;;
62654;SDS011;48717;55.556;37.816;2022-08-11T19:23:10;25.80;;;8.65;;
62654;SDS011;48717;55.556;37.816;2022-08-11T19:25:58;20.63;;;8.70;;
62654;SDS011;48717;55.556;37.816;2022-08-11T19:28:46;22.45;;;8.55;;
62654;SDS011;48717;55.556;37.816;2022-08-11T19:31:34;17.63;;;7.93;;
62654;SDS011;48717;55.556;37.816;2022-08-11T19:34:25;20.88;;;7.57;;
62654;SDS011;48717;55.556;37.816;2022-08-11T19:37:11;19.58;;;7.45;;
62654;SDS011;48717;55.556;37.816;2022-08-11T19:40:03;14.50;;;7.63;;
62654;SDS011;48717;55.556;37.816;2022-08-11T19:42:51;16.80;;;7.78;;
62654;SDS011;48717;55.556;37.816;2022-08-11T19:45:52;13.77;;;7.68;;
62654;SDS011;48717;55.556;37.816;2022-08-11T19:48:42;21.27;;;7.25;;
62654;SDS011;48717;55.556;37.816;2022-08-11T19:51:29;17.35;;;6.47;;
62654;SDS011;48717;55.556;37.816;2022-08-11T19:54:29;17.05;;;6.88;;
62654;SDS011;48717;55.556;37.816;2022-08-11T19:57:18;27.10;;;16.02;;
62654;SDS011;48717;55.556;37.816;2022-08-11T20:00:10;17.95;;;8.32;;
62654;SDS011;48717;55.556;37.816;2022-08-11T20:03:12;16.65;;;6.40;;
62654;SDS011;48717;55.556;37.816;2022-08-11T20:06:00;36.78;;;22.10;;
62654;SDS011;48717;55.556;37.816;2022-08-11T20:08:49;19.08;;;7.50;;
62654;SDS011;48717;55.556;37.816;2022-08-11T20:11:40;16.15;;;7.70;;